Time;durP1;ratioP1;P1;durP2;ratioP2;P2;SDS_P1;SDS_P2;PMS_P1;PMS_P2;Temp;Humidity;BMP_temperature;BMP_pressure;BME280_temperature;BME280_humidity;BME280_pressure;Samples;Min_cycle;Max_cycle;Signal;HPM_P1;HPM_P2
2022/11/01 06:57:23;;;;;;;12.20;3.10;;;12.00;99.90;;;;;;5136102;27;20274;-85
2022/11/01 06:59:49;;;;;;;9.53;3.50;;;;;;;;;;5116188;28;20268;-85
2022/11/01 07:02:14;;;;;;;7.77;3.60;;;12.20;99.90;;;;;;5118746;28;20190;-85
2022/11/01 07:04:40;;;;;;;9.37;3.50;;;;;;;;;;5133520;27;20166;-86
2022/11/01 07:07:06;;;;;;;8.13;3.40;;;;;;;;;;5131865;28;20700;-85
2022/11/01 07:09:34;;;;;;;10.33;3.27;;;12.70;99.90;;;;;;5137680;28;20205;-84
2022/11/01 07:57:53;;;;;;;5.73;3.47;;;14.30;99.90;;;;;;5135023;27;20278;-85
2022/11/01 08:00:19;;;;;;;4.73;3.27;;;14.30;99.90;;;;;;5134949;28;20257;-85
2022/11/01 08:02:44;;;;;;;8.47;3.30;;;14.30;99.90;;;;;;5134930;28;20183;-85
2022/11/01 08:05:11;;;;;;;9.87;3.83;;;14.30;99.90;;;;;;5135420;27;20175;-84
2022/11/01 08:07:40;;;;;;;6.83;3.50;;;14.40;99.90;;;;;;5133989;28;20284;-84
2022/11/01 08:10:08;;;;;;;8.57;3.30;;;14.40;99.90;;;;;;5135646;27;20235;-84
2022/11/01 08:12:34;;;;;;;6.90;3.07;;;14.40;99.90;;;;;;5135373;27;20209;-86
2022/11/01 08:15:03;;;;;;;9.00;3.40;;;14.50;99.90;;;;;;5134542;28;20179;-83
2022/11/01 08:17:29;;;;;;;15.97;3.17;;;14.50;99.90;;;;;;5135288;27;20228;-84
2022/11/01 08:19:54;;;;;;;9.83;3.80;;;14.50;99.90;;;;;;5135386;27;20625;-86
2022/11/01 08:22:20;;;;;;;4.87;3.13;;;14.50;99.90;;;;;;5133826;28;20194;-85
2022/11/01 08:24:46;;;;;;;5.87;3.37;;;14.60;99.90;;;;;;5133642;28;20579;-84
2022/11/01 08:27:12;;;;;;;8.40;3.60;;;14.60;99.90;;;;;;5133751;28;20183;-85
2022/11/01 08:29:37;;;;;;;8.67;3.33;;;14.50;99.90;;;;;;5135464;27;20177;-84
2022/11/01 08:32:03;;;;;;;10.20;3.70;;;14.50;99.90;;;;;;5135018;27;20247;-83
2022/11/01 08:34:29;;;;;;;6.87;3.33;;;14.50;99.90;;;;;;5133717;28;20175;-84
2022/11/01 08:36:56;;;;;;;9.00;4.20;;;14.50;99.90;;;;;;5133738;28;20207;-84
2022/11/01 08:39:22;;;;;;;8.10;4.33;;;14.50;99.90;;;;;;5133684;28;20171;-84
2022/11/01 08:41:48;;;;;;;7.73;3.70;;;14.50;99.90;;;;;;5134925;27;20198;-84
2022/11/01 08:44:14;;;;;;;5.63;3.70;;;14.50;99.90;;;;;;5133493;28;20187;-85
2022/11/01 08:46:42;;;;;;;7.97;3.83;;;14.60;99.90;;;;;;5134256;28;20249;-86
2022/11/01 08:49:09;;;;;;;5.97;3.70;;;14.60;99.90;;;;;;5133226;28;20209;-85
2022/11/01 08:51:35;;;;;;;8.30;4.10;;;14.60;99.90;;;;;;5133659;28;20197;-85
2022/11/01 08:54:01;;;;;;;7.90;3.60;;;14.60;99.90;;;;;;5133088;28;20183;-85
2022/11/01 08:56:27;;;;;;;10.90;3.60;;;14.60;99.90;;;;;;5135108;27;20218;-85
2022/11/01 09:24:50;;;;;;;9.83;3.30;;;14.80;99.90;;;;;;5135775;27;20267;-84
2022/11/01 09:27:16;;;;;;;6.90;2.90;;;14.80;99.90;;;;;;5135612;28;20262;-83
2022/11/01 09:29:42;;;;;;;14.37;5.60;;;14.80;99.90;;;;;;5117084;28;20171;-84
2022/11/01 09:32:07;;;;;;;5.37;2.77;;;15.00;99.90;;;;;;5120930;28;20200;-84
2022/11/01 09:34:33;;;;;;;5.77;2.50;;;15.10;99.90;;;;;;5133461;28;20266;-86
2022/11/01 09:37:00;;;;;;;6.63;3.70;;;15.30;99.90;;;;;;5134876;27;20525;-85
2022/11/01 09:39:26;;;;;;;8.97;4.70;;;15.50;99.90;;;;;;5135079;27;20199;-85
2022/11/01 09:41:54;;;;;;;8.57;5.83;;;15.70;99.90;;;;;;5133271;28;20236;-87
2022/11/01 09:44:28;;;;;;;8.03;3.03;;;15.90;99.90;;;;;;5138219;28;20199;-84
2022/11/01 09:46:59;;;;;;;6.13;2.70;;;16.10;99.90;;;;;;5133700;28;20188;-85
2022/11/01 09:49:30;;;;;;;6.27;2.30;;;16.10;99.90;;;;;;5133492;28;20331;-84
2022/11/01 09:51:56;;;;;;;6.30;2.13;;;16.20;99.90;;;;;;5134897;27;20271;-85
2022/11/01 09:54:23;;;;;;;6.73;2.50;;;16.40;99.90;;;;;;5133099;28;20694;-85
2022/11/01 09:57:04;;;;;;;6.10;2.93;;;16.50;99.90;;;;;;5132819;28;20185;-82
2022/11/01 09:59:59;;;;;;;5.50;2.27;;;16.50;99.90;;;;;;5132767;28;20205;-85
2022/11/01 10:02:53;;;;;;;4.30;1.90;;;16.30;99.90;;;;;;5132462;28;20208;-84
2022/11/01 10:05:27;;;;;;;9.87;4.77;;;16.20;99.90;;;;;;5133880;28;20171;-84
2022/11/01 10:07:53;;;;;;;12.40;7.80;;;16.20;99.90;;;;;;5131028;28;20693;-85
2022/11/01 10:10:33;;;;;;;7.53;4.27;;;16.20;99.90;;;;;;5132330;27;20172;-84
2022/11/01 10:13:23;;;;;;;54.07;28.57;;;16.00;99.90;;;;;;5130801;28;20200;-85
2022/11/01 10:16:08;;;;;;;19.13;11.43;;;16.00;99.90;;;;;;5133624;28;20177;-86
2022/11/01 10:19:00;;;;;;;6.53;2.70;;;16.20;99.90;;;;;;5134546;27;20250;-85
2022/11/01 10:21:31;;;;;;;5.17;2.93;;;16.20;99.90;;;;;;5133547;28;20183;-85
2022/11/01 10:23:59;;;;;;;4.90;2.90;;;16.10;99.90;;;;;;5134646;27;20693;-84
2022/11/01 10:26:29;;;;;;;12.00;5.33;;;16.10;99.90;;;;;;5133739;28;20184;-85
2022/11/01 10:29:07;;;;;;;79.00;48.37;;;16.10;99.90;;;;;;5135037;27;20213;-85
2022/11/01 10:31:39;;;;;;;18.03;12.47;;;16.00;99.90;;;;;;5133714;28;20177;-85
2022/11/01 10:34:16;;;;;;;10.20;6.47;;;15.80;99.90;;;;;;5131952;28;20188;-85
2022/11/01 10:36:45;;;;;;;7.30;4.80;;;15.90;99.90;;;;;;5119698;28;20170;-84
2022/11/01 10:39:48;;;;;;;5.77;4.10;;;16.00;99.90;;;;;;5119742;28;20241;-84
2022/11/01 10:42:15;;;;;;;3.00;1.77;;;16.10;99.90;;;;;;5120940;28;20199;-85
2022/11/01 10:44:53;;;;;;;4.70;2.43;;;16.30;99.90;;;;;;5119565;28;20276;-85
2022/11/01 10:47:19;;;;;;;5.77;2.90;;;16.60;99.90;;;;;;5120397;28;20172;-84
2022/11/01 10:49:54;;;;;;;7.33;2.67;;;16.90;99.90;;;;;;5118996;28;20630;-83
2022/11/01 10:52:25;;;;;;;4.13;2.20;;;17.00;99.90;;;;;;5120413;28;20213;-85
2022/11/01 10:54:52;;;;;;;3.57;1.70;;;17.20;99.90;;;;;;5120527;28;20260;-84
2022/11/01 10:58:05;;;;;;;6.80;3.33;;;17.30;99.90;;;;;;5118443;28;20177;-85
2022/11/01 11:00:33;;;;;;;5.33;2.33;;;17.60;99.90;;;;;;5076884;28;20344;-83
2022/11/01 11:03:09;;;;;;;5.30;2.00;;;17.50;99.90;;;;;;5115088;28;20224;-84
2022/11/01 11:05:35;;;;;;;6.47;2.23;;;17.60;99.90;;;;;;5118212;28;20234;-84
2022/11/01 11:08:03;;;;;;;4.93;1.70;;;17.90;99.90;;;;;;5120339;28;20648;-82
2022/11/01 11:10:29;;;;;;;2.37;1.43;;;18.20;99.90;;;;;;5120373;28;20175;-84
2022/11/01 11:12:59;;;;;;;2.30;1.40;;;18.50;99.90;;;;;;5118964;28;20213;-84
2022/11/01 11:15:40;;;;;;;4.40;1.67;;;18.10;99.90;;;;;;5117872;28;20290;-84
2022/11/01 11:18:19;;;;;;;2.97;1.50;;;17.90;99.90;;;;;;5117758;28;20231;-85
2022/11/01 11:20:50;;;;;;;2.97;1.50;;;17.50;99.90;;;;;;5121421;28;20182;-85
2022/11/01 11:23:20;;;;;;;3.10;1.60;;;17.20;99.90;;;;;;5118747;28;20719;-83
2022/11/01 11:25:46;;;;;;;2.53;1.73;;;17.00;99.90;;;;;;5120194;28;20537;-85
2022/11/01 11:28:25;;;;;;;2.73;1.50;;;16.80;99.90;;;;;;5118641;28;20179;-83
2022/11/01 11:30:51;;;;;;;5.20;1.60;;;16.60;99.90;;;;;;5120327;27;20178;-85
2022/11/01 11:33:18;;;;;;;5.20;1.57;;;16.40;99.90;;;;;;5118285;28;20208;-84
2022/11/01 11:35:54;;;;;;;5.40;1.67;;;16.30;99.90;;;;;;5120933;28;20208;-85
2022/11/01 11:38:42;;;;;;;2.93;1.73;;;16.20;99.90;;;;;;5120313;28;20182;-85
2022/11/01 11:41:10;;;;;;;4.10;1.70;;;16.00;99.90;;;;;;5120431;28;20186;-86
2022/11/01 11:43:39;;;;;;;4.13;1.47;;;16.00;99.90;;;;;;5121520;28;20201;-85
2022/11/01 11:46:05;;;;;;;5.33;2.20;;;15.90;99.90;;;;;;5120886;28;20169;-85
2022/11/01 11:48:31;;;;;;;8.47;2.03;;;15.80;99.90;;;;;;5120225;28;20266;-85
2022/11/01 11:51:06;;;;;;;6.77;2.03;;;15.80;99.90;;;;;;5120665;28;20172;-84
2022/11/01 11:53:32;;;;;;;2.40;1.40;;;15.80;99.90;;;;;;5126615;28;20200;-84
2022/11/01 11:56:05;;;;;;;2.50;1.47;;;15.90;99.90;;;;;;5121324;28;20188;-86
2022/11/01 11:58:47;;;;;;;4.97;1.93;;;16.00;99.90;;;;;;5121729;28;20644;-85
2022/11/01 12:01:21;;;;;;;8.17;1.63;;;16.00;99.90;;;;;;5120923;28;20229;-84
2022/11/01 12:03:52;;;;;;;6.20;1.97;;;16.00;99.90;;;;;;5122672;28;20297;-83
2022/11/01 12:06:43;;;;;;;5.27;1.67;;;15.90;99.90;;;;;;5122109;28;20170;-85
2022/11/01 12:09:45;;;;;;;3.87;1.83;;;16.00;99.90;;;;;;5113700;28;20632;-84
2022/11/01 12:12:24;;;;;;;3.73;1.63;;;16.00;99.90;;;;;;5120672;28;20200;-84
2022/11/01 12:14:49;;;;;;;3.53;2.20;;;15.90;99.90;;;;;;5122751;28;20206;-86
2022/11/01 12:17:24;;;;;;;6.60;2.27;;;15.90;99.90;;;;;;5120068;28;20577;-86
2022/11/01 12:20:18;;;;;;;10.03;2.03;;;15.90;99.90;;;;;;5119944;28;20243;-85
2022/11/01 12:23:17;;;;;;;6.80;2.13;;;16.00;99.90;;;;;;5119039;28;20213;-84
2022/11/01 12:25:45;;;;;;;4.17;2.23;;;16.00;99.90;;;;;;5122145;27;20255;-83
2022/11/01 12:28:33;;;;;;;6.67;4.13;;;15.90;99.90;;;;;;5121396;28;20244;-85
2022/11/01 12:31:04;;;;;;;6.37;2.30;;;15.80;99.90;;;;;;5121873;28;20173;-85
2022/11/01 12:33:55;;;;;;;4.63;2.50;;;15.90;99.90;;;;;;5121261;28;20214;-85
2022/11/01 12:36:33;;;;;;;5.80;2.30;;;15.80;99.90;;;;;;5115882;28;20202;-86
2022/11/01 12:39:26;;;;;;;5.93;2.23;;;15.80;99.90;;;;;;5121786;28;20169;-86
2022/11/01 12:41:58;;;;;;;3.20;1.47;;;15.80;99.90;;;;;;5089811;28;20212;-84
2022/11/01 12:44:37;;;;;;;5.33;2.40;;;15.80;99.90;;;;;;5119253;28;20209;-83
2022/11/01 12:47:29;;;;;;;3.53;1.50;;;15.80;99.90;;;;;;5120075;28;20324;-84
2022/11/01 12:50:04;;;;;;;4.13;1.43;;;15.80;99.90;;;;;;5120696;28;20182;-84
2022/11/01 12:52:38;;;;;;;4.17;1.67;;;15.80;99.90;;;;;;5119630;28;20242;-85
2022/11/01 12:55:26;;;;;;;4.53;1.70;;;15.80;99.90;;;;;;5118776;28;20179;-84
2022/11/01 12:57:54;;;;;;;5.73;2.57;;;15.70;99.90;;;;;;5117959;28;20171;-84
2022/11/01 13:00:20;;;;;;;6.00;1.70;;;15.70;99.90;;;;;;5119186;28;20172;-83
2022/11/01 13:03:17;;;;;;;5.03;1.50;;;15.70;99.90;;;;;;5120126;28;20286;-84
2022/11/01 13:05:54;;;;;;;3.50;1.80;;;15.70;99.90;;;;;;5117980;28;20174;-84
2022/11/01 13:08:56;;;;;;;4.07;1.60;;;15.60;99.90;;;;;;5117409;28;20591;-85
2022/11/01 13:11:47;;;;;;;7.87;1.70;;;15.60;99.90;;;;;;5120245;28;20527;-83
2022/11/01 13:14:28;;;;;;;6.03;2.13;;;15.60;99.90;;;;;;5118834;28;20160;-84
2022/11/01 13:17:11;;;;;;;7.40;2.07;;;15.60;99.90;;;;;;5118966;28;20223;-84
2022/11/01 13:19:47;;;;;;;4.13;1.87;;;15.60;99.90;;;;;;5122752;28;20176;-84
2022/11/01 13:22:24;;;;;;;4.60;1.70;;;15.50;99.90;;;;;;5124685;28;20235;-86
2022/11/01 13:25:04;;;;;;;4.77;1.80;;;15.50;99.90;;;;;;5119973;28;20198;-86
2022/11/01 13:27:41;;;;;;;8.07;2.43;;;15.50;99.90;;;;;;5121947;28;20163;-84
2022/11/01 13:30:21;;;;;;;8.80;2.40;;;15.50;99.90;;;;;;5120730;28;20211;-84
2022/11/01 13:33:31;;;;;;;3.80;2.97;;;15.40;99.90;;;;;;5119887;28;20197;-86
2022/11/01 13:36:10;;;;;;;5.80;2.43;;;15.50;99.90;;;;;;5119462;28;20611;-84
2022/11/01 13:38:54;;;;;;;5.90;2.53;;;15.50;99.90;;;;;;5121939;28;20175;-84
2022/11/01 13:41:35;;;;;;;3.17;1.47;;;15.50;99.90;;;;;;5120519;28;20192;-83
2022/11/01 13:44:15;;;;;;;6.47;2.20;;;15.40;99.90;;;;;;5128424;28;20213;-85
2022/11/01 13:47:01;;;;;;;6.83;2.07;;;15.40;99.90;;;;;;5119453;28;20159;-86
2022/11/01 13:49:46;;;;;;;5.47;2.63;;;15.30;99.90;;;;;;5116604;28;20179;-84
2022/11/01 13:52:18;;;;;;;6.63;2.20;;;15.30;99.90;;;;;;5115660;28;20285;-85
2022/11/01 13:54:55;;;;;;;5.53;2.40;;;15.30;99.90;;;;;;5116567;28;20251;-85
2022/11/01 13:57:24;;;;;;;5.73;1.97;;;15.30;99.90;;;;;;5116130;28;20178;-85
2022/11/01 13:59:56;;;;;;;2.23;1.40;;;15.30;99.90;;;;;;5119129;28;20266;-85
2022/11/01 14:02:22;;;;;;;5.67;1.70;;;15.20;99.90;;;;;;5114712;28;20249;-85
2022/11/01 14:05:02;;;;;;;4.93;2.10;;;15.20;99.90;;;;;;5116203;28;20275;-84
2022/11/01 14:07:43;;;;;;;4.40;1.80;;;15.10;99.90;;;;;;5114890;28;20649;-84
2022/11/01 14:10:09;;;;;;;8.37;2.40;;;15.10;99.90;;;;;;5116153;28;20629;-81
2022/11/01 14:12:42;;;;;;;6.37;2.00;;;15.10;99.90;;;;;;5119307;28;20635;-84
2022/11/01 14:15:12;;;;;;;4.93;2.03;;;15.00;99.90;;;;;;5119150;28;20183;-86
2022/11/01 14:17:51;;;;;;;5.17;2.60;;;15.00;99.90;;;;;;5120066;28;20164;-86
2022/11/01 14:20:22;;;;;;;4.33;2.23;;;15.10;99.90;;;;;;5119673;28;20170;-85
2022/11/01 14:22:48;;;;;;;4.40;1.93;;;15.00;99.90;;;;;;5119609;28;20196;-81
2022/11/01 14:25:13;;;;;;;9.77;2.40;;;15.00;99.90;;;;;;5122153;28;20167;-86
2022/11/01 14:27:45;;;;;;;6.23;3.80;;;15.00;99.90;;;;;;5120160;27;20175;-83
2022/11/01 14:30:22;;;;;;;7.37;2.63;;;15.00;99.90;;;;;;5117961;28;20195;-84
2022/11/01 14:32:59;;;;;;;4.90;1.93;;;14.90;99.90;;;;;;5119089;28;20278;-84
2022/11/01 14:35:34;;;;;;;5.40;1.67;;;14.90;99.90;;;;;;5119698;28;20200;-85
2022/11/01 14:38:05;;;;;;;5.77;1.50;;;14.90;99.90;;;;;;5118166;28;20179;-83
2022/11/01 14:40:39;;;;;;;4.93;2.10;;;14.90;99.90;;;;;;5118044;28;20231;-84
2022/11/01 14:43:19;;;;;;;8.50;2.90;;;14.90;99.90;;;;;;5119328;28;20206;-85
2022/11/01 14:45:51;;;;;;;5.03;2.20;;;14.80;99.90;;;;;;5118049;28;20172;-85
2022/11/01 14:48:27;;;;;;;3.90;2.00;;;14.90;99.90;;;;;;5117622;28;20163;-84
2022/11/01 14:51:13;;;;;;;25.90;13.67;;;14.80;99.90;;;;;;5117964;28;20159;-84
2022/11/01 14:53:40;;;;;;;15.47;6.50;;;14.80;99.90;;;;;;5118786;28;20188;-85
2022/11/01 14:56:31;;;;;;;30.67;15.50;;;14.80;99.90;;;;;;5117815;28;20182;-84
2022/11/01 14:59:18;;;;;;;12.77;6.10;;;14.80;99.90;;;;;;5117929;28;20186;-84
2022/11/01 15:01:45;;;;;;;5.43;2.40;;;14.70;99.90;;;;;;5118245;28;20171;-84
2022/11/01 15:04:28;;;;;;;5.97;2.33;;;14.60;99.90;;;;;;5117855;28;20282;-85
2022/11/01 15:06:55;;;;;;;7.83;2.27;;;14.60;99.90;;;;;;5117888;28;20156;-84
2022/11/01 15:09:29;;;;;;;3.80;1.97;;;14.60;99.90;;;;;;5118284;28;20334;-85
2022/11/01 15:12:09;;;;;;;6.03;2.00;;;14.50;99.90;;;;;;5119185;28;20188;-84
2022/11/01 15:14:39;;;;;;;5.23;2.07;;;14.50;99.90;;;;;;5119767;28;20187;-85
2022/11/01 15:17:16;;;;;;;7.10;2.83;;;14.50;99.90;;;;;;5118888;28;20262;-85
2022/11/01 15:19:44;;;;;;;8.03;1.77;;;14.50;99.90;;;;;;5119564;28;20160;-84
2022/11/01 15:22:17;;;;;;;3.63;1.60;;;14.50;99.90;;;;;;5118664;28;20191;-85
2022/11/01 15:24:46;;;;;;;3.67;1.60;;;14.40;99.90;;;;;;5118005;28;20284;-84
2022/11/01 15:27:20;;;;;;;4.40;1.70;;;14.40;99.90;;;;;;5117586;28;20193;-85
2022/11/01 15:29:47;;;;;;;9.50;2.53;;;14.40;99.90;;;;;;5118603;28;20163;-86
2022/11/01 15:32:42;;;;;;;2.30;1.50;;;14.40;99.90;;;;;;5118409;28;20252;-84
2022/11/01 15:35:24;;;;;;;6.20;1.80;;;14.40;99.90;;;;;;5109927;28;20191;-82
2022/11/01 15:37:52;;;;;;;4.93;2.23;;;14.30;99.90;;;;;;5118388;28;20178;-84
2022/11/01 15:40:36;;;;;;;5.63;3.30;;;14.30;99.90;;;;;;5118613;28;20171;-85
2022/11/01 15:43:03;;;;;;;5.67;3.20;;;14.30;99.90;;;;;;5118736;28;20211;-85
2022/11/01 15:45:31;;;;;;;3.40;2.03;;;14.30;99.90;;;;;;5120239;28;20217;-85
2022/11/01 15:48:00;;;;;;;6.77;2.30;;;14.20;99.90;;;;;;5117891;28;20220;-85
2022/11/01 15:50:37;;;;;;;6.03;2.13;;;14.20;99.90;;;;;;5118339;28;20212;-85
2022/11/01 15:53:06;;;;;;;5.83;2.27;;;14.20;99.90;;;;;;5119484;28;20187;-84
2022/11/01 15:55:35;;;;;;;7.77;1.83;;;14.10;99.90;;;;;;5117352;28;20180;-83
2022/11/01 15:58:09;;;;;;;19.77;11.13;;;14.10;99.90;;;;;;5118519;28;20233;-83
2022/11/01 16:00:40;;;;;;;8.90;2.93;;;14.10;99.90;;;;;;5118117;28;20166;-83
2022/11/01 16:03:11;;;;;;;9.50;6.07;;;14.10;99.90;;;;;;5118489;28;20199;-82
2022/11/01 16:05:55;;;;;;;40.27;22.53;;;14.10;99.90;;;;;;5118427;28;20241;-82
2022/11/01 16:08:26;;;;;;;228.87;145.70;;;14.00;99.90;;;;;;5117177;28;20163;-83
2022/11/01 16:10:52;;;;;;;17.60;10.93;;;14.00;99.90;;;;;;5117203;28;20195;-84
2022/11/01 16:13:19;;;;;;;5.57;2.57;;;13.90;99.90;;;;;;5121894;28;20564;-84
2022/11/01 16:16:05;;;;;;;4.43;2.63;;;13.90;99.90;;;;;;5118429;28;20183;-84
2022/11/01 16:18:36;;;;;;;3.57;2.47;;;13.90;99.90;;;;;;5115993;28;20172;-86
